createdAt,value
2023-04-15T00:00:24.342Z,1.90
2023-04-15T00:03:52.487Z,1.97
2023-04-15T00:07:19.110Z,1.60
2023-04-15T00:10:44.174Z,1.57
2023-04-15T00:14:10.026Z,1.43
2023-04-15T00:17:36.095Z,1.47
2023-04-15T00:21:00.157Z,1.90
2023-04-15T00:24:26.621Z,1.50
2023-04-15T00:27:51.667Z,1.67
2023-04-15T00:31:15.618Z,1.60
2023-04-15T00:34:39.422Z,1.40
2023-04-15T00:38:05.965Z,1.30
2023-04-15T00:41:31.617Z,1.43
2023-04-15T00:44:55.394Z,1.60
2023-04-15T00:48:19.644Z,1.53
2023-04-15T00:51:43.654Z,1.70
2023-04-15T00:55:08.892Z,1.50
2023-04-15T00:58:34.323Z,1.70
2023-04-15T01:01:57.882Z,1.63
2023-04-15T01:05:21.960Z,1.30
2023-04-15T01:08:46.618Z,1.30
2023-04-15T01:12:14.115Z,1.40
2023-04-15T01:15:40.051Z,1.40
2023-04-15T01:19:04.604Z,1.63
2023-04-15T01:22:28.764Z,1.60
2023-04-15T01:25:55.122Z,1.10
2023-04-15T01:29:19.352Z,1.57
2023-04-15T01:32:43.817Z,1.47
2023-04-15T01:36:10.869Z,1.50
2023-04-15T01:39:35.413Z,1.40
2023-04-15T01:43:01.143Z,1.57
2023-04-15T01:46:25.209Z,1.50
2023-04-15T01:49:50.862Z,1.47
2023-04-15T01:53:15.797Z,2.07
2023-04-15T01:56:39.840Z,1.70
2023-04-15T02:00:07.644Z,1.80
2023-04-15T02:03:38.876Z,1.70
2023-04-15T02:07:02.444Z,1.77
2023-04-15T02:10:26.243Z,1.40
2023-04-15T02:13:50.070Z,1.80
2023-04-15T02:17:16.468Z,2.23
2023-04-15T02:20:40.534Z,2.00
2023-04-15T02:24:06.210Z,1.90
2023-04-15T02:27:30.652Z,1.63
2023-04-15T02:30:57.073Z,1.70
2023-04-15T02:34:22.390Z,1.60
2023-04-15T02:37:46.466Z,1.50
2023-04-15T02:41:11.210Z,1.30
2023-04-15T02:44:36.513Z,1.60
2023-04-15T02:48:05.963Z,1.43
2023-04-15T02:51:32.562Z,1.63
2023-04-15T02:55:00.530Z,1.43
2023-04-15T02:58:24.214Z,1.30
2023-04-15T03:01:48.219Z,1.80
2023-04-15T03:05:14.457Z,1.60
2023-04-15T03:08:46.001Z,1.43
2023-04-15T03:12:10.630Z,1.60
2023-04-15T03:15:34.482Z,2.30
2023-04-15T03:18:58.215Z,1.50
2023-04-15T03:22:22.463Z,1.60
2023-04-15T03:25:48.146Z,1.70
2023-04-15T03:29:12.423Z,1.80
2023-04-15T03:32:36.930Z,1.47
2023-04-15T03:36:01.998Z,1.80
2023-04-15T03:39:25.868Z,1.93
2023-04-15T03:42:50.973Z,1.57
2023-04-15T03:46:14.735Z,1.83
2023-04-15T03:49:38.775Z,1.63
2023-04-15T03:53:02.185Z,1.70
2023-04-15T03:56:26.329Z,2.17
2023-04-15T03:59:51.481Z,1.50
2023-04-15T04:03:15.493Z,1.90
2023-04-15T04:06:39.703Z,2.10
2023-04-15T04:10:04.825Z,1.53
2023-04-15T04:13:28.864Z,1.70
2023-04-15T04:16:54.084Z,1.93
2023-04-15T04:20:18.157Z,1.40
2023-04-15T04:23:41.985Z,1.50
2023-04-15T04:27:05.859Z,1.50
2023-04-15T04:30:29.784Z,1.70
2023-04-15T04:33:55.102Z,1.70
2023-04-15T04:37:18.924Z,1.47
2023-04-15T04:40:42.827Z,1.80
2023-04-15T04:44:07.062Z,2.17
2023-04-15T04:47:30.911Z,1.47
2023-04-15T04:50:56.336Z,2.00
2023-04-15T04:54:21.201Z,1.33
2023-04-15T04:57:45.166Z,1.90
2023-04-15T05:01:09.011Z,1.40
2023-04-15T05:04:34.448Z,1.40
2023-04-15T05:07:59.648Z,1.70
2023-04-15T05:11:23.394Z,1.83
2023-04-15T05:14:47.734Z,2.00
2023-04-15T05:18:11.482Z,1.77
2023-04-15T05:21:36.629Z,1.70
2023-04-15T05:25:03.484Z,1.70
2023-04-15T05:28:27.350Z,1.73
2023-04-15T05:31:50.958Z,1.70
2023-04-15T05:35:14.784Z,2.17
2023-04-15T05:38:38.637Z,2.23
2023-04-15T05:42:03.803Z,1.73
2023-04-15T05:45:27.296Z,1.60
2023-04-15T05:48:51.559Z,1.50
2023-04-15T05:52:15.468Z,1.40
2023-04-15T05:55:39.319Z,1.80
2023-04-15T05:59:04.171Z,1.63
2023-04-15T06:02:28.013Z,1.90
2023-04-15T06:05:51.929Z,1.40
2023-04-15T06:09:15.868Z,1.40
2023-04-15T06:12:39.591Z,2.00
2023-04-15T06:16:05.086Z,1.87
2023-04-15T06:19:28.589Z,1.70
2023-04-15T06:22:52.931Z,1.90
2023-04-15T06:26:16.699Z,2.27
2023-04-15T06:29:40.434Z,2.10
2023-04-15T06:33:06.458Z,2.10
2023-04-15T06:36:29.986Z,1.87
2023-04-15T06:39:53.400Z,1.93
2023-04-15T06:43:17.205Z,1.77
2023-04-15T06:46:41.001Z,2.00
2023-04-15T06:50:06.981Z,2.00
2023-04-15T06:53:30.435Z,1.90
2023-04-15T06:56:54.221Z,1.90
2023-04-15T07:00:18.456Z,1.90
2023-04-15T07:03:42.793Z,2.40
2023-04-15T07:07:08.050Z,1.97
2023-04-15T07:10:31.900Z,2.20
2023-04-15T07:13:55.848Z,1.83
2023-04-15T07:17:19.277Z,1.93
2023-04-15T07:20:42.855Z,2.27
2023-04-15T07:24:08.741Z,2.17
2023-04-15T07:27:32.513Z,2.00
2023-04-15T07:30:57.115Z,2.10
2023-04-15T07:34:21.109Z,1.90
2023-04-15T07:37:44.952Z,1.80
2023-04-15T07:41:10.580Z,1.70
2023-04-15T07:44:34.610Z,1.93
2023-04-15T07:47:58.326Z,1.90
2023-04-15T07:51:22.161Z,2.03
2023-04-15T07:54:46.210Z,1.70
2023-04-15T07:58:11.094Z,1.90
2023-04-15T08:01:34.662Z,1.80
2023-04-15T08:04:58.953Z,1.77
2023-04-15T08:08:23.123Z,1.73
2023-04-15T08:11:47.839Z,2.07
2023-04-15T08:15:13.377Z,1.70
2023-04-15T08:18:37.574Z,1.90
2023-04-15T08:22:01.410Z,1.80
2023-04-15T08:25:24.954Z,2.10
2023-04-15T08:28:49.404Z,1.70
2023-04-15T08:32:14.854Z,1.63
2023-04-15T08:35:38.740Z,1.80
2023-04-15T08:39:04.842Z,1.97
2023-04-15T08:42:36.989Z,1.97
2023-04-15T08:46:01.980Z,1.53
2023-04-15T08:49:29.861Z,1.77
2023-04-15T08:52:56.849Z,1.57
2023-04-15T08:56:25.300Z,1.53
2023-04-15T08:59:49.792Z,1.70
2023-04-15T09:03:13.639Z,1.73
2023-04-15T09:06:41.030Z,1.73
2023-04-15T09:10:05.422Z,1.67
2023-04-15T09:13:29.354Z,1.90
2023-04-15T09:17:01.413Z,2.00
2023-04-15T09:20:25.555Z,1.90
2023-04-15T09:24:02.466Z,2.17
2023-04-15T09:27:26.642Z,1.87
2023-04-15T09:30:54.048Z,1.53
2023-04-15T09:34:17.978Z,1.53
2023-04-15T09:37:41.832Z,1.40
2023-04-15T09:41:19.687Z,1.47
2023-04-15T09:44:43.563Z,1.50
2023-04-15T09:48:20.915Z,1.40
2023-04-15T09:51:57.582Z,1.50
2023-04-15T09:55:27.902Z,1.17
2023-04-15T09:58:58.474Z,1.03
2023-04-15T10:02:22.460Z,1.33
2023-04-15T10:05:47.279Z,1.10
2023-04-15T10:09:11.573Z,1.00
2023-04-15T10:12:35.834Z,0.90
2023-04-15T10:16:07.702Z,1.20
2023-04-15T10:19:35.291Z,1.20
2023-04-15T10:22:59.620Z,1.00
2023-04-15T10:26:23.562Z,1.07
2023-04-15T10:29:48.729Z,1.23
2023-04-15T10:33:14.660Z,1.07
2023-04-15T10:36:40.910Z,1.20
2023-04-15T10:40:31.455Z,1.27
2023-04-15T10:43:56.820Z,1.07
2023-04-15T10:47:22.526Z,1.10
2023-04-15T10:50:58.100Z,1.20
2023-04-15T10:54:36.174Z,1.20
2023-04-15T10:58:02.174Z,1.10
2023-04-15T11:01:52.980Z,1.30
2023-04-15T11:05:18.514Z,1.10
2023-04-15T11:09:06.009Z,1.10
2023-04-15T11:12:36.729Z,1.00
2023-04-15T11:16:02.470Z,1.30
2023-04-15T11:19:26.169Z,1.13
2023-04-15T11:22:50.022Z,1.30
2023-04-15T11:26:15.448Z,1.90
2023-04-15T11:29:39.335Z,1.00
2023-04-15T11:33:05.065Z,1.10
2023-04-15T11:36:32.469Z,1.37
2023-04-15T11:39:57.104Z,1.53
2023-04-15T11:43:24.362Z,1.47
2023-04-15T11:46:48.119Z,1.10
2023-04-15T11:50:19.342Z,1.60
2023-04-15T11:53:46.026Z,1.70
2023-04-15T11:57:09.875Z,1.50
2023-04-15T12:00:34.974Z,1.30
2023-04-15T12:03:59.924Z,1.10
2023-04-15T12:07:23.895Z,1.00
2023-04-15T12:10:47.704Z,1.30
2023-04-15T12:14:14.166Z,1.00
2023-04-15T12:17:50.806Z,1.00
2023-04-15T12:21:15.906Z,1.10
2023-04-15T12:24:41.046Z,1.20
2023-04-15T12:28:12.932Z,1.40
2023-04-15T12:31:37.704Z,1.10
2023-04-15T12:35:03.122Z,1.47
2023-04-15T12:38:27.086Z,1.20
2023-04-15T12:41:50.979Z,1.13
2023-04-15T12:45:14.971Z,1.10
2023-04-15T12:48:38.493Z,1.10
2023-04-15T12:52:05.585Z,1.00
2023-04-15T12:55:30.507Z,1.00
2023-04-15T12:58:54.315Z,1.10
2023-04-15T13:02:18.684Z,0.93
2023-04-15T13:05:42.511Z,0.90
2023-04-15T13:09:07.639Z,1.10
2023-04-15T13:12:31.221Z,1.37
2023-04-15T13:15:54.736Z,1.40
2023-04-15T13:19:18.557Z,1.00
2023-04-15T13:22:42.549Z,1.10
2023-04-15T13:26:07.405Z,0.97
2023-04-15T13:29:31.325Z,0.83
2023-04-15T13:32:55.180Z,1.00
2023-04-15T13:36:18.609Z,1.10
2023-04-15T13:39:42.412Z,1.10
2023-04-15T13:43:07.662Z,1.10
2023-04-15T13:46:31.364Z,0.90
2023-04-15T13:49:56.541Z,0.97
2023-04-15T13:53:20.263Z,0.80
2023-04-15T13:56:44.419Z,1.10
2023-04-15T14:00:11.357Z,1.00
2023-04-15T14:03:36.018Z,1.07
2023-04-15T14:07:00.098Z,0.90
2023-04-15T14:10:23.901Z,0.80
2023-04-15T14:13:47.589Z,1.40
2023-04-15T14:17:12.406Z,1.30
2023-04-15T14:20:35.830Z,1.07
2023-04-15T14:23:59.585Z,0.80
2023-04-15T14:27:24.065Z,0.70
2023-04-15T14:30:47.789Z,1.00
2023-04-15T14:34:12.936Z,0.80
2023-04-15T14:37:36.666Z,1.10
2023-04-15T14:41:01.038Z,0.90
2023-04-15T14:44:25.026Z,0.70
2023-04-15T14:47:49.987Z,0.90
2023-04-15T14:51:16.073Z,1.00
2023-04-15T14:54:39.770Z,1.33
2023-04-15T14:58:04.346Z,0.90
2023-04-15T15:01:28.163Z,0.87
2023-04-15T15:04:52.085Z,1.10
2023-04-15T15:08:16.919Z,1.33
2023-04-15T15:11:40.722Z,1.40
2023-04-15T15:15:12.324Z,1.40
2023-04-15T15:18:43.471Z,1.20
2023-04-15T15:22:07.242Z,1.00
2023-04-15T15:25:32.428Z,0.90
2023-04-15T15:28:56.153Z,1.00
2023-04-15T15:32:19.541Z,0.90
2023-04-15T15:35:43.366Z,1.10
2023-04-15T15:39:07.942Z,0.80
2023-04-15T15:42:33.922Z,0.97
2023-04-15T15:45:57.779Z,0.80
2023-04-15T15:49:21.609Z,1.10
2023-04-15T15:52:45.768Z,0.97
2023-04-15T15:56:09.238Z,1.00
2023-04-15T15:59:35.308Z,1.03
2023-04-15T16:06:26.661Z,0.97
2023-04-15T16:09:50.805Z,0.80
2023-04-15T16:13:14.689Z,0.90
2023-04-15T16:16:40.815Z,0.90
2023-04-15T16:20:06.150Z,0.90
2023-04-15T16:23:30.081Z,0.80
2023-04-15T16:26:53.870Z,0.80
2023-04-15T16:30:17.997Z,0.70
2023-04-15T16:33:43.198Z,0.80
2023-04-15T16:37:07.053Z,0.80
2023-04-15T16:40:31.386Z,0.70
2023-04-15T16:43:56.087Z,0.77
2023-04-15T16:47:19.964Z,0.77
2023-04-15T16:50:45.302Z,0.73
2023-04-15T16:54:09.907Z,0.90
2023-04-15T16:57:53.132Z,1.00
2023-04-15T17:01:17.554Z,0.87
2023-04-15T17:04:41.626Z,1.03
2023-04-15T17:08:07.165Z,0.90
2023-04-15T17:11:31.297Z,1.30
2023-04-15T17:14:55.246Z,1.30
2023-04-15T17:18:19.089Z,1.20
2023-04-15T17:21:42.996Z,1.40
2023-04-15T17:25:09.367Z,1.37
2023-04-15T17:28:33.176Z,1.37
2023-04-15T17:31:57.164Z,1.20
2023-04-15T17:35:23.042Z,1.20
2023-04-15T17:38:46.852Z,1.90
2023-04-15T17:42:12.871Z,1.47
2023-04-15T17:45:36.424Z,1.40
2023-04-15T17:49:00.152Z,0.93
2023-04-15T17:52:24.184Z,1.30
2023-04-15T17:55:48.112Z,1.40
2023-04-15T17:59:13.399Z,1.10
2023-04-15T18:02:37.509Z,1.00
2023-04-15T18:06:01.789Z,1.20
2023-04-15T18:09:25.478Z,1.30
2023-04-15T18:12:49.494Z,1.37
2023-04-15T18:16:14.817Z,1.10
2023-04-15T18:19:38.771Z,0.90
2023-04-15T18:23:02.712Z,0.90
2023-04-15T18:26:27.126Z,0.90
2023-04-15T18:29:51.726Z,1.17
2023-04-15T18:33:16.704Z,1.27
2023-04-15T18:36:40.730Z,1.30
2023-04-15T18:40:04.866Z,1.10
2023-04-15T18:43:28.810Z,1.40
2023-04-15T18:46:52.756Z,1.83
2023-04-15T18:50:18.070Z,1.10
2023-04-15T18:53:41.928Z,1.20
2023-04-15T18:57:07.022Z,1.10
2023-04-15T19:00:31.020Z,1.13
2023-04-15T19:03:55.035Z,1.37
2023-04-15T19:07:20.142Z,1.30
2023-04-15T19:10:44.787Z,1.10
2023-04-15T19:14:08.749Z,1.43
2023-04-15T19:17:33.065Z,1.30
2023-04-15T19:20:58.252Z,1.50
2023-04-15T19:24:23.675Z,1.40
2023-04-15T19:27:47.509Z,1.40
2023-04-15T19:31:11.490Z,1.40
2023-04-15T19:34:35.418Z,1.60
2023-04-15T19:37:59.265Z,2.23
2023-04-15T19:41:24.362Z,1.97
2023-04-15T19:44:48.298Z,2.00
2023-04-15T19:48:12.153Z,2.23
2023-04-15T19:51:36.079Z,1.63
2023-04-15T19:54:59.970Z,1.83
2023-04-15T19:58:25.135Z,2.07
2023-04-15T20:01:48.732Z,2.13
2023-04-15T20:05:13.837Z,1.90
2023-04-15T20:08:37.418Z,2.03
2023-04-15T20:12:46.123Z,2.50
2023-04-15T20:15:46.544Z,2.10
2023-04-15T20:19:12.361Z,2.50
2023-04-15T20:22:36.403Z,2.13
2023-04-15T20:26:00.205Z,2.20
2023-04-15T20:29:24.148Z,2.20
2023-04-15T20:32:49.096Z,3.00
2023-04-15T20:36:12.989Z,2.60
2023-04-15T20:39:36.565Z,2.60
2023-04-15T20:43:00.599Z,2.70
2023-04-15T20:46:26.613Z,3.30
2023-04-15T20:49:52.386Z,2.53
2023-04-15T20:53:16.586Z,2.83
2023-04-15T20:56:41.071Z,2.70
2023-04-15T21:00:05.724Z,2.80
2023-04-15T21:03:29.432Z,2.40
2023-04-15T21:06:54.390Z,2.77
2023-04-15T21:10:18.325Z,2.40
2023-04-15T21:13:42.145Z,2.53
2023-04-15T21:17:09.276Z,2.20
2023-04-15T21:20:34.538Z,2.43
2023-04-15T21:24:00.881Z,2.43
2023-04-15T21:27:25.955Z,2.30
2023-04-15T21:30:50.118Z,2.40
2023-04-15T21:34:14.058Z,3.07
2023-04-15T21:37:38.569Z,2.70
2023-04-15T21:41:06.494Z,2.53
2023-04-15T21:44:30.333Z,2.23
2023-04-15T21:48:04.197Z,2.43
2023-04-15T21:51:32.561Z,2.70
2023-04-15T21:54:56.302Z,2.60
2023-04-15T21:58:21.544Z,3.07
2023-04-15T22:01:45.346Z,3.03
2023-04-15T22:05:09.554Z,3.10
2023-04-15T22:08:38.550Z,3.10
2023-04-15T22:12:08.313Z,2.93
2023-04-15T22:15:33.688Z,3.00
2023-04-15T22:18:57.722Z,3.00
2023-04-15T22:22:22.116Z,2.93
2023-04-15T22:25:56.862Z,2.90
2023-04-15T22:29:20.780Z,2.70
2023-04-15T22:32:45.978Z,3.20
2023-04-15T22:36:09.781Z,3.20
2023-04-15T22:39:33.499Z,3.40
2023-04-15T22:42:56.983Z,3.90
2023-04-15T22:46:20.903Z,3.13
2023-04-15T22:49:46.128Z,3.43
2023-04-15T22:53:09.836Z,3.60
2023-04-15T22:56:33.617Z,3.10
2023-04-15T22:59:57.465Z,3.83
2023-04-15T23:03:21.337Z,3.40
2023-04-15T23:06:46.578Z,3.63
2023-04-15T23:10:11.218Z,3.27
2023-04-15T23:13:35.654Z,3.40
2023-04-15T23:16:59.743Z,3.70
2023-04-15T23:20:23.442Z,3.67
2023-04-15T23:23:48.547Z,3.47
2023-04-15T23:27:12.276Z,2.60
2023-04-15T23:30:35.999Z,3.67
2023-04-15T23:33:59.736Z,3.93
2023-04-15T23:37:23.100Z,3.40
2023-04-15T23:40:48.152Z,3.60
2023-04-15T23:44:11.845Z,4.00
2023-04-15T23:47:35.591Z,3.60
2023-04-15T23:50:59.294Z,3.10
2023-04-15T23:54:23.100Z,3.30
2023-04-15T23:57:48.495Z,3.20
